Time;durP1;ratioP1;P1;durP2;ratioP2;P2;SDS_P1;SDS_P2;PMS_P1;PMS_P2;Temp;Humidity;BMP_temperature;BMP_pressure;BME280_temperature;BME280_humidity;BME280_pressure;Samples;Min_cycle;Max_cycle;Signal;HPM_P1;HPM_P2
2021/12/13 00:01:36;;;;;;;11.25;9.88;;;;;;;12.12;67.52;100238.20;1749678;80;21049;-63
2021/12/13 00:04:20;;;;;;;11.80;9.93;;;;;;;12.10;67.46;100240.70;1751659;79;21119;-65
2021/12/13 00:06:51;;;;;;;13.32;11.00;;;;;;;12.07;67.36;100226.38;1728980;80;21006;-63
2021/12/13 00:09:22;;;;;;;13.45;10.70;;;;;;;12.03;67.28;100225.88;1752322;80;21515;-66
2021/12/13 00:11:52;;;;;;;13.10;10.55;;;;;;;12.02;67.19;100222.07;1753620;80;21050;-63
2021/12/13 00:14:27;;;;;;;12.85;10.05;;;;;;;12.00;67.11;100224.89;1733469;82;21019;-65
2021/12/13 00:17:17;;;;;;;12.15;9.53;;;;;;;11.97;67.00;100220.70;1759296;80;21601;-64
2021/12/13 00:20:00;;;;;;;11.45;10.23;;;;;;;11.96;66.92;100227.55;1754736;80;21079;-63
2021/12/13 00:22:44;;;;;;;12.30;10.32;;;;;;;11.94;66.83;100229.55;1761611;80;21082;-64
2021/12/13 00:25:20;;;;;;;12.95;10.53;;;;;;;11.91;66.79;100234.69;1764884;80;21232;-64
2021/12/13 00:27:53;;;;;;;13.55;10.38;;;;;;;11.87;66.73;100224.00;1740656;80;21034;-65
2021/12/13 00:30:55;;;;;;;13.10;10.93;;;;;;;11.85;66.68;100215.35;1750172;80;21927;-62
2021/12/13 00:33:48;;;;;;;11.38;10.18;;;;;;;11.85;66.64;100219.85;1717712;80;21054;-62
2021/12/13 00:36:38;;;;;;;11.57;9.58;;;;;;;11.80;66.59;100215.86;1758005;80;21038;-62
2021/12/13 00:39:21;;;;;;;12.20;10.13;;;;;;;11.77;66.54;100212.18;1761572;80;21042;-63
2021/12/13 00:41:48;;;;;;;11.95;9.93;;;;;;;11.76;66.50;100211.01;1763539;80;21011;-63
2021/12/13 00:44:43;;;;;;;13.43;10.40;;;;;;;11.73;66.46;100204.19;1760437;79;21805;-62
2021/12/13 00:47:17;;;;;;;11.68;9.80;;;;;;;11.71;66.42;100194.72;1754855;80;21143;-62
2021/12/13 00:49:48;;;;;;;11.45;10.25;;;;;;;11.71;66.33;100202.70;1749651;80;21065;-63
2021/12/13 00:52:17;;;;;;;14.33;11.73;;;;;;;11.69;66.30;100200.20;1768506;80;21118;-63
2021/12/13 00:54:44;;;;;;;12.33;10.03;;;;;;;11.68;66.26;100201.18;1766925;80;21077;-63
2021/12/13 00:57:39;;;;;;;11.75;9.93;;;;;;;11.68;66.20;100209.16;1770532;80;22189;-64
2021/12/13 01:00:13;;;;;;;11.65;9.93;;;;;;;11.67;66.13;100202.20;1730668;80;21015;-63
2021/12/13 01:02:56;;;;;;;11.30;10.10;;;;;;;11.65;66.09;100204.19;1762371;80;21030;-63
2021/12/13 01:05:34;;;;;;;12.80;9.85;;;;;;;11.64;66.03;100210.50;1752204;80;21174;-63
2021/12/13 01:08:19;;;;;;;11.30;10.00;;;;;;;11.63;65.98;100211.98;1746532;80;21094;-62
2021/12/13 01:11:09;;;;;;;10.68;9.33;;;;;;;11.61;65.92;100206.34;1764697;80;21152;-63
2021/12/13 01:13:51;;;;;;;12.15;10.03;;;;;;;11.59;65.87;100208.33;1746168;80;21007;-61
2021/12/13 01:16:47;;;;;;;10.82;9.08;;;;;;;11.58;65.86;100202.66;1762906;80;21017;-62
2021/12/13 01:21:59;;;;;;;;;;;;;;;11.56;65.77;100195.34;1758072;80;21101;-61
2021/12/13 01:24:51;;;;;;;10.65;9.55;;;;;;;11.55;65.70;100195.02;1754079;80;21156;-61
2021/12/13 01:26:52;;;;;;;12.82;10.58;;;;;;;11.51;65.71;100184.86;1757844;80;21506;-62
2021/12/13 01:29:23;;;;;;;10.93;9.78;;;;;;;11.50;65.68;100173.39;1746911;80;21085;-62
2021/12/13 01:31:55;;;;;;;10.95;9.78;;;;;;;11.51;65.64;100168.89;1771808;80;21046;-62
2021/12/13 01:34:23;;;;;;;11.20;10.00;;;;;;;11.51;65.58;100152.45;1772807;80;21573;-63
2021/12/13 01:37:02;;;;;;;12.33;10.03;;;;;;;11.50;65.51;100155.27;1752882;80;21094;-64
2021/12/13 01:39:25;;;;;;;11.53;10.25;;;;;;;11.50;65.45;100152.10;1762158;80;21073;-64
2021/12/13 01:41:58;;;;;;;12.00;10.70;;;;;;;11.49;65.38;100154.45;1760638;80;21593;-63
2021/12/13 01:44:29;;;;;;;11.80;10.50;;;;;;;11.49;65.32;100163.76;1720103;82;21062;-62
2021/12/13 01:47:09;;;;;;;10.63;9.53;;;;;;;11.50;65.25;100154.77;1765095;80;21064;-61
2021/12/13 01:49:40;;;;;;;10.75;9.45;;;;;;;11.49;65.20;100163.76;1756287;80;21146;-62
2021/12/13 01:52:29;;;;;;;11.38;9.60;;;;;;;11.48;65.16;100168.73;1720223;82;21032;-62
2021/12/13 01:54:58;;;;;;;11.63;9.78;;;;;;;11.47;65.11;100163.56;1754752;80;21081;-64
2021/12/13 01:57:39;;;;;;;11.55;10.05;;;;;;;11.46;65.08;100173.38;1754189;80;21018;-62
2021/12/13 02:00:08;;;;;;;12.37;9.98;;;;;;;11.46;65.01;100165.41;1762574;80;21007;-63
2021/12/13 02:02:44;;;;;;;10.18;8.80;;;;;;;11.45;64.97;100163.72;1766933;79;21130;-62
2021/12/13 02:07:08;;;;;;;11.25;9.73;;;;;;;11.49;64.87;100165.09;1841911;76;28194;-63
2021/12/13 02:09:39;;;;;;;11.38;10.18;;;;;;;11.44;64.83;100167.91;1809174;77;21029;-62
2021/12/13 02:12:12;;;;;;;11.83;9.85;;;;;;;11.45;64.77;100166.38;1808364;78;21092;-62
2021/12/13 02:17:22;;;;;;;11.45;10.25;;;;;;;11.44;64.66;100162.08;1784251;78;21092;-61
2021/12/13 02:20:00;;;;;;;11.53;10.23;;;;;;;11.43;64.62;100169.70;1813272;77;21467;-63
2021/12/13 02:22:42;;;;;;;11.20;10.00;;;;;;;11.41;64.59;100167.23;1824177;78;21016;-62
2021/12/13 02:25:23;;;;;;;13.70;10.88;;;;;;;11.42;64.54;100170.72;1789842;78;21134;-62
2021/12/13 02:27:58;;;;;;;11.15;9.98;;;;;;;11.42;64.47;100165.40;1817830;78;20996;-62
2021/12/13 02:30:48;;;;;;;12.60;10.13;;;;;;;11.40;64.44;100166.89;1816114;77;20969;-62
2021/12/13 02:33:26;;;;;;;11.00;9.85;;;;;;;11.40;64.42;100179.36;1819926;78;21049;-63
2021/12/13 02:36:00;;;;;;;13.03;10.43;;;;;;;11.38;64.36;100172.87;1801244;78;21084;-60
2021/12/13 02:38:26;;;;;;;11.93;10.32;;;;;;;11.39;64.35;100169.70;1812579;77;21951;-62
2021/12/13 02:40:53;;;;;;;11.48;9.98;;;;;;;11.38;64.31;100173.38;1802720;77;21010;-63
2021/12/13 02:43:24;;;;;;;13.05;11.40;;;;;;;11.37;64.28;100165.05;1810542;78;21013;-62
2021/12/13 02:45:53;;;;;;;13.90;11.50;;;;;;;11.36;64.24;100172.20;1812902;78;20993;-63
2021/12/13 02:48:40;;;;;;;12.40;10.03;;;;;;;11.37;64.20;100174.35;1805470;77;21084;-63
2021/12/13 02:51:17;;;;;;;13.00;11.12;;;;;;;11.36;64.18;100176.19;1808296;78;22023;-63
2021/12/13 02:53:52;;;;;;;13.20;10.98;;;;;;;11.35;64.11;100169.19;1800670;78;20978;-62
2021/12/13 02:56:22;;;;;;;12.35;10.72;;;;;;;11.36;64.08;100171.38;1798836;78;21060;-61
2021/12/13 02:58:50;;;;;;;12.98;10.68;;;;;;;11.34;64.05;100164.88;1808160;78;22024;-62
2021/12/13 03:01:33;;;;;;;11.80;10.48;;;;;;;11.34;64.03;100162.22;1813519;77;20998;-61
2021/12/13 03:04:05;;;;;;;11.80;10.53;;;;;;;11.34;63.97;100153.41;1741324;81;21082;-62
2021/12/13 03:06:35;;;;;;;12.43;11.00;;;;;;;11.34;63.92;100160.06;1773559;79;21137;-61
2021/12/13 03:09:18;;;;;;;13.10;11.12;;;;;;;11.32;63.90;100160.22;1768725;79;21068;-62
2021/12/13 03:11:46;;;;;;;10.93;9.78;;;;;;;11.33;63.88;100161.05;1791676;78;21502;-62
2021/12/13 03:14:21;;;;;;;11.65;10.25;;;;;;;11.32;63.82;100157.56;1778062;78;21518;-63
2021/12/13 03:17:00;;;;;;;14.75;11.95;;;;;;;11.32;63.80;100150.91;1772895;79;21081;-62
2021/12/13 03:19:44;;;;;;;12.68;10.20;;;;;;;11.30;63.72;100146.25;1755066;79;21081;-63
2021/12/13 03:22:34;;;;;;;13.40;11.20;;;;;;;11.31;63.69;100149.73;1769595;78;21072;-62
2021/12/13 03:25:39;;;;;;;13.25;11.85;;;;;;;11.30;63.65;100139.61;1757862;81;21010;-62
2021/12/13 03:28:32;;;;;;;13.50;11.65;;;;;;;11.29;63.61;100144.58;1753737;81;21022;-62
2021/12/13 03:31:13;;;;;;;13.80;11.35;;;;;;;11.27;63.62;100147.90;1735810;81;21562;-62
2021/12/13 03:33:54;;;;;;;12.88;10.95;;;;;;;11.26;63.60;100145.39;1742572;81;21016;-62
2021/12/13 03:37:03;;;;;;;13.53;11.03;;;;;;;11.25;63.59;100135.77;1742346;81;21046;-61
2021/12/13 03:39:41;;;;;;;12.78;10.98;;;;;;;11.24;63.55;100126.11;1738231;81;21589;-61
2021/12/13 03:42:15;;;;;;;12.78;11.05;;;;;;;11.23;63.52;100123.13;1743732;81;21091;-62
2021/12/13 03:44:47;;;;;;;14.53;12.63;;;;;;;11.21;63.51;100129.44;1745471;81;21123;-62
2021/12/13 03:47:18;;;;;;;15.48;12.35;;;;;;;11.21;63.50;100128.61;1732732;81;21059;-61
2021/12/13 03:49:49;;;;;;;14.87;12.18;;;;;;;11.21;63.46;100124.62;1741718;81;21046;-61
2021/12/13 03:52:18;;;;;;;11.85;10.60;;;;;;;11.21;63.41;100122.78;1736362;81;21046;-61
2021/12/13 03:54:45;;;;;;;14.15;12.05;;;;;;;11.22;63.36;100122.28;1746628;80;21006;-62
2021/12/13 03:57:14;;;;;;;14.13;11.45;;;;;;;11.23;63.31;100127.12;1790782;78;21053;-62
2021/12/13 03:59:41;;;;;;;13.93;11.55;;;;;;;11.23;63.26;100129.78;1809764;78;20978;-62
2021/12/13 04:02:13;;;;;;;13.32;11.85;;;;;;;11.23;63.21;100117.81;1803577;78;21025;-62
2021/12/13 04:04:43;;;;;;;15.40;12.40;;;;;;;11.24;63.17;100107.50;1797010;78;20998;-63
2021/12/13 04:07:25;;;;;;;13.85;12.03;;;;;;;11.24;63.13;100100.34;1805879;78;21044;-62
2021/12/13 04:09:55;;;;;;;13.75;11.50;;;;;;;11.23;63.06;100092.55;1802493;78;21076;-63
2021/12/13 04:12:29;;;;;;;11.78;10.45;;;;;;;11.22;63.05;100093.02;1809120;78;21517;-62
2021/12/13 04:14:59;;;;;;;15.13;12.35;;;;;;;11.22;63.02;100099.67;1802803;78;21092;-61
2021/12/13 04:20:09;;;;;;;15.00;12.58;;;;;;;11.21;62.95;100098.84;1762599;78;21020;-62
2021/12/13 04:22:38;;;;;;;13.68;11.38;;;;;;;11.21;62.92;100100.18;1819069;77;21059;-62
2021/12/13 04:25:13;;;;;;;14.93;12.37;;;;;;;11.21;62.90;100098.03;1799224;77;20990;-61
2021/12/13 04:28:10;;;;;;;15.38;12.55;;;;;;;11.21;62.86;100097.52;1812897;78;21008;-61
2021/12/13 04:30:42;;;;;;;14.33;11.73;;;;;;;11.21;62.82;100096.19;1795649;78;21056;-63
2021/12/13 04:33:34;;;;;;;15.30;13.50;;;;;;;11.21;62.77;100111.33;1797473;78;21580;-62
2021/12/13 04:36:21;;;;;;;16.12;12.75;;;;;;;11.18;62.76;100111.16;1796347;78;21796;-62
2021/12/13 04:38:55;;;;;;;16.02;12.23;;;;;;;11.19;62.71;100115.47;1795546;78;21513;-63
2021/12/13 04:41:36;;;;;;;16.97;13.43;;;;;;;11.17;62.72;100124.11;1813100;77;21022;-63
2021/12/13 04:44:08;;;;;;;14.95;13.13;;;;;;;11.18;62.70;100120.94;1781193;77;21040;-62
2021/12/13 04:46:35;;;;;;;15.13;12.33;;;;;;;11.17;62.69;100121.95;1799146;78;21049;-62
2021/12/13 04:49:09;;;;;;;15.83;13.72;;;;;;;11.17;62.66;100120.62;1800112;78;21192;-63
2021/12/13 04:51:46;;;;;;;15.25;12.65;;;;;;;11.15;62.60;100126.09;1749468;81;21028;-62
2021/12/13 04:54:14;;;;;;;15.83;13.60;;;;;;;11.16;62.56;100126.92;1738152;81;21026;-63
2021/12/13 04:56:41;;;;;;;17.07;13.03;;;;;;;11.17;62.55;100130.75;1742855;81;21509;-62
2021/12/13 04:59:10;;;;;;;15.98;13.32;;;;;;;11.16;62.50;100129.58;1751898;81;21069;-66
2021/12/13 05:01:37;;;;;;;17.37;13.08;;;;;;;11.16;62.48;100127.78;1757066;81;21108;-63
2021/12/13 05:04:05;;;;;;;14.58;12.60;;;;;;;11.17;62.46;100137.91;1759184;80;21009;-63
2021/12/13 05:06:36;;;;;;;15.05;13.43;;;;;;;11.16;62.41;100129.11;1759999;80;21526;-62
2021/12/13 05:09:07;;;;;;;16.97;12.47;;;;;;;11.17;62.38;100129.43;1745662;80;21008;-62
2021/12/13 05:11:43;;;;;;;14.90;12.55;;;;;;;11.17;62.32;100129.94;1754083;79;21053;-62
2021/12/13 05:14:10;;;;;;;14.65;12.73;;;;;;;11.17;62.30;100128.09;1740762;80;21989;-64
2021/12/13 05:16:50;;;;;;;14.83;13.20;;;;;;;11.17;62.27;100133.41;1748660;81;21077;-63
2021/12/13 05:19:28;;;;;;;17.95;13.45;;;;;;;11.17;62.23;100130.75;1754419;79;21539;-62
2021/12/13 05:21:55;;;;;;;15.35;13.10;;;;;;;11.17;62.19;100136.58;1749582;80;21050;-64
2021/12/13 05:24:26;;;;;;;15.90;12.85;;;;;;;11.17;62.15;100133.41;1748213;81;21026;-63
2021/12/13 05:27:09;;;;;;;15.78;13.00;;;;;;;11.16;62.12;100139.75;1758538;79;21105;-63
2021/12/13 05:29:46;;;;;;;15.03;13.15;;;;;;;11.16;62.06;100129.58;1745699;81;21027;-64
2021/12/13 05:32:17;;;;;;;17.27;13.50;;;;;;;11.15;62.06;100128.76;1748382;79;21016;-63
2021/12/13 05:34:50;;;;;;;14.75;12.65;;;;;;;11.15;62.04;100131.42;1736801;79;21058;-63
2021/12/13 05:37:16;;;;;;;15.65;13.13;;;;;;;11.15;62.01;100139.39;1733889;79;21049;-63
2021/12/13 05:40:01;;;;;;;16.82;14.07;;;;;;;11.14;61.99;100140.88;1740696;79;21990;-62
2021/12/13 05:42:54;;;;;;;17.45;13.45;;;;;;;11.14;61.96;100135.05;1757831;79;21553;-63
2021/12/13 05:45:36;;;;;;;15.63;13.20;;;;;;;11.14;61.93;100135.05;1740961;80;21450;-63
2021/12/13 05:48:12;;;;;;;16.90;13.95;;;;;;;11.13;61.93;100133.41;1741708;79;21034;-62
2021/12/13 05:50:43;;;;;;;15.70;13.13;;;;;;;11.12;61.92;100138.38;1751812;80;21491;-63
2021/12/13 05:53:20;;;;;;;18.05;14.07;;;;;;;11.11;61.92;100139.39;1739180;79;21129;-64
2021/12/13 05:55:58;;;;;;;18.20;14.35;;;;;;;11.11;61.89;100142.05;1753519;79;21026;-63
2021/12/13 05:58:41;;;;;;;19.27;14.45;;;;;;;11.12;61.87;100150.84;1735903;79;21062;-63
2021/12/13 06:01:27;;;;;;;17.17;13.78;;;;;;;11.11;61.85;100158.00;1746040;79;21538;-63
2021/12/13 06:04:12;;;;;;;19.02;14.93;;;;;;;11.11;61.83;100163.83;1763129;79;21026;-64
2021/12/13 06:06:49;;;;;;;15.75;14.10;;;;;;;11.10;61.86;100163.47;1747236;80;21145;-63
2021/12/13 06:09:44;;;;;;;17.55;14.28;;;;;;;11.09;61.82;100167.97;1776828;80;21560;-64
2021/12/13 06:12:18;;;;;;;18.40;14.90;;;;;;;11.09;61.80;100165.81;1755862;81;21269;-64
2021/12/13 06:14:45;;;;;;;17.92;13.70;;;;;;;11.07;61.81;100171.28;1770120;80;21041;-65
2021/12/13 06:17:19;;;;;;;18.20;15.03;;;;;;;11.06;61.79;100162.95;1770577;80;21022;-64
2021/12/13 06:19:59;;;;;;;17.57;14.03;;;;;;;11.07;61.77;100166.44;1779960;80;21041;-63
2021/12/13 06:22:29;;;;;;;17.00;13.85;;;;;;;11.06;61.74;100161.63;1768274;79;21519;-64
2021/12/13 06:25:06;;;;;;;16.65;13.80;;;;;;;11.06;61.72;100165.62;1777126;79;21067;-64
2021/12/13 06:27:46;;;;;;;16.82;14.05;;;;;;;11.08;61.69;100165.46;1767330;79;21045;-64
2021/12/13 06:30:35;;;;;;;17.62;14.65;;;;;;;11.07;61.68;100160.65;1774182;79;21561;-64
2021/12/13 06:33:06;;;;;;;17.12;14.03;;;;;;;11.06;61.63;100162.95;1780028;79;21178;-66
2021/12/13 06:35:55;;;;;;;18.25;14.20;;;;;;;11.07;61.63;100163.78;1754045;80;21029;-64
2021/12/13 06:38:30;;;;;;;17.32;14.65;;;;;;;11.07;61.60;100161.12;1739546;81;21494;-64
2021/12/13 06:41:08;;;;;;;17.67;14.05;;;;;;;11.06;61.57;100154.16;1746948;81;21570;-64
2021/12/13 06:43:57;;;;;;;17.73;13.80;;;;;;;11.06;61.54;100161.63;1741947;81;21066;-64
2021/12/13 06:46:32;;;;;;;17.30;14.13;;;;;;;11.06;61.52;100166.13;1750253;80;21101;-63
2021/12/13 06:49:06;;;;;;;17.15;14.68;;;;;;;11.05;61.50;100165.30;1749437;81;21028;-63
2021/12/13 06:51:59;;;;;;;15.72;14.03;;;;;;;11.05;61.50;100163.97;1813140;77;21025;-64
2021/12/13 06:54:49;;;;;;;15.53;13.30;;;;;;;11.06;61.54;100167.45;1791695;77;21025;-64
2021/12/13 06:57:20;;;;;;;16.95;13.25;;;;;;;11.06;61.52;100162.95;1815472;78;21041;-65
2021/12/13 07:00:12;;;;;;;16.17;13.35;;;;;;;11.05;61.53;100162.64;1809798;78;21062;-63
2021/12/13 07:02:56;;;;;;;15.48;13.05;;;;;;;11.05;61.51;100155.14;1798707;78;21742;-64
2021/12/13 07:05:34;;;;;;;16.97;14.05;;;;;;;11.05;61.49;100155.14;1811931;78;21489;-63
2021/12/13 07:08:05;;;;;;;16.45;13.72;;;;;;;11.05;61.48;100155.14;1785779;78;21092;-66
2021/12/13 07:10:43;;;;;;;16.65;14.15;;;;;;;11.06;61.46;100159.48;1786455;79;21033;-64
2021/12/13 07:13:44;;;;;;;16.07;13.00;;;;;;;11.04;61.43;100158.30;1796218;78;22175;-64
2021/12/13 07:16:20;;;;;;;14.85;13.00;;;;;;;11.05;61.40;100154.66;1782323;79;21069;-63
2021/12/13 07:19:00;;;;;;;17.82;13.95;;;;;;;11.05;61.38;100149.82;1791290;79;21029;-63
2021/12/13 07:21:29;;;;;;;17.30;13.88;;;;;;;11.04;61.38;100146.34;1789066;78;21474;-63
2021/12/13 07:24:13;;;;;;;16.30;13.18;;;;;;;11.05;61.35;100132.53;1811730;77;21053;-63
2021/12/13 07:27:05;;;;;;;18.15;13.85;;;;;;;11.05;61.34;100136.05;1792734;78;21196;-65
2021/12/13 07:29:48;;;;;;;14.30;11.90;;;;;;;11.06;61.31;100136.88;1786961;78;21026;-63
2021/12/13 07:32:34;;;;;;;17.48;13.48;;;;;;;11.05;61.29;100144.50;1794093;78;21045;-64
2021/12/13 07:35:13;;;;;;;17.05;13.83;;;;;;;11.05;61.27;100145.83;1797683;78;21272;-63
2021/12/13 07:37:48;;;;;;;16.17;11.93;;;;;;;11.04;61.25;100138.36;1799209;78;21053;-64
2021/12/13 07:40:23;;;;;;;14.10;12.53;;;;;;;11.04;61.21;100118.42;1792981;78;23259;-63
2021/12/13 07:42:57;;;;;;;15.15;12.80;;;;;;;11.05;61.20;100117.91;1810790;78;21045;-64
2021/12/13 07:45:47;;;;;;;14.73;12.37;;;;;;;11.05;61.17;100115.26;1813342;78;21033;-63
2021/12/13 07:48:41;;;;;;;14.25;12.58;;;;;;;11.05;61.14;100112.13;1813032;79;21021;-65
2021/12/13 07:51:29;;;;;;;;;;;;;;;11.06;61.15;100118.27;1800958;78;21201;-61
2021/12/13 07:54:09;;;;;;;15.70;12.82;;;;;;;11.05;61.13;100117.91;1799039;79;21969;-61
2021/12/13 07:56:41;;;;;;;14.25;12.75;;;;;;;11.01;61.20;100129.39;1806535;78;21442;-63
2021/12/13 07:59:27;;;;;;;16.15;12.75;;;;;;;11.01;61.19;100137.38;1805097;78;21556;-62
2021/12/13 08:02:01;;;;;;;15.28;13.32;;;;;;;11.03;61.18;100155.33;1793370;79;21580;-63
2021/12/13 08:04:50;;;;;;;12.88;11.43;;;;;;;10.91;61.15;100145.45;1800312;79;21076;-62
2021/12/13 08:07:27;;;;;;;16.00;12.85;;;;;;;11.03;61.15;100155.33;1801353;79;21133;-62
2021/12/13 08:10:01;;;;;;;15.18;12.47;;;;;;;11.02;61.09;100169.09;1785360;79;21080;-62
2021/12/13 08:12:39;;;;;;;14.45;12.13;;;;;;;11.04;61.06;100167.61;1796266;79;21002;-61
2021/12/13 08:15:25;;;;;;;12.68;11.38;;;;;;;11.04;61.04;100161.46;1785468;78;21052;-63
2021/12/13 08:17:57;;;;;;;14.63;12.35;;;;;;;11.04;61.02;100174.25;1805428;78;21033;-64
2021/12/13 08:20:35;;;;;;;14.80;12.35;;;;;;;11.04;61.02;100182.23;1794359;79;22272;-65
2021/12/13 08:23:03;;;;;;;13.95;11.65;;;;;;;11.05;60.97;100177.73;1788159;79;20995;-65
2021/12/13 08:25:34;;;;;;;14.83;11.57;;;;;;;11.05;60.94;100175.94;1806624;77;21093;-63
2021/12/13 08:28:08;;;;;;;14.55;11.80;;;;;;;11.06;60.90;100178.09;1800641;78;21357;-62
2021/12/13 08:30:56;;;;;;;13.70;11.85;;;;;;;11.06;60.87;100181.56;1800882;79;20974;-62
2021/12/13 08:33:45;;;;;;;14.15;11.48;;;;;;;11.05;60.82;100179.92;1805745;79;21144;-63
2021/12/13 08:36:30;;;;;;;13.05;11.65;;;;;;;11.06;60.79;100176.25;1799620;79;21417;-62
2021/12/13 08:39:16;;;;;;;14.35;11.95;;;;;;;11.06;60.78;100183.41;1792756;78;21076;-62
2021/12/13 08:41:54;;;;;;;13.18;11.30;;;;;;;11.05;60.76;100189.23;1827483;78;21014;-61
2021/12/13 08:44:37;;;;;;;13.40;11.15;;;;;;;11.05;60.74;100187.90;1782595;79;21536;-62
2021/12/13 08:47:11;;;;;;;14.63;11.28;;;;;;;11.05;60.72;100173.75;1802051;79;21815;-62
2021/12/13 08:49:57;;;;;;;13.00;10.60;;;;;;;11.04;60.71;100163.62;1809204;79;21017;-62
2021/12/13 08:52:36;;;;;;;13.05;11.68;;;;;;;11.05;60.68;100173.27;1791008;79;21026;-62
2021/12/13 08:55:14;;;;;;;13.28;11.60;;;;;;;11.05;60.65;100177.73;1797383;79;21037;-62
2021/12/13 08:58:14;;;;;;;12.35;10.85;;;;;;;11.04;60.64;100171.59;1807696;78;21569;-62
2021/12/13 09:00:53;;;;;;;14.45;11.83;;;;;;;11.04;60.61;100163.62;1794829;78;21138;-64
2021/12/13 09:03:47;;;;;;;12.25;10.65;;;;;;;11.04;60.61;100148.17;1803866;79;21088;-63
2021/12/13 09:06:25;;;;;;;14.25;11.45;;;;;;;11.04;60.58;100148.17;1790218;78;22880;-63
2021/12/13 09:09:13;;;;;;;11.70;10.28;;;;;;;11.03;60.58;100132.72;1797302;77;21100;-63
2021/12/13 09:12:00;;;;;;;14.00;11.70;;;;;;;11.04;60.57;100133.55;1793922;78;21033;-62
2021/12/13 09:14:39;;;;;;;11.93;10.68;;;;;;;11.03;60.55;100140.70;1793041;78;21138;-62
2021/12/13 09:17:26;;;;;;;11.70;10.43;;;;;;;11.02;60.53;100127.88;1802369;77;21029;-61
2021/12/13 09:19:54;;;;;;;12.63;10.90;;;;;;;11.04;60.51;100121.58;1793820;78;20974;-61
2021/12/13 09:22:35;;;;;;;12.13;10.25;;;;;;;11.02;60.51;100118.58;1819355;78;21050;-63
2021/12/13 09:25:07;;;;;;;13.03;11.20;;;;;;;11.03;60.48;100122.09;1809444;77;21651;-61
2021/12/13 09:27:39;;;;;;;11.65;10.45;;;;;;;11.04;60.47;100138.87;1813414;78;21133;-63
2021/12/13 09:30:39;;;;;;;13.53;11.18;;;;;;;11.04;60.47;100151.66;1811090;77;21010;-62
2021/12/13 09:33:32;;;;;;;14.00;11.10;;;;;;;11.05;60.44;100149.34;1805620;78;21031;-61
2021/12/13 09:36:13;;;;;;;12.18;10.23;;;;;;;11.04;60.41;100143.67;1813893;78;21060;-62
2021/12/13 09:39:09;;;;;;;13.65;10.75;;;;;;;11.05;60.42;100145.83;1824918;77;21076;-62
2021/12/13 09:41:52;;;;;;;12.88;11.05;;;;;;;11.05;60.37;100149.82;1807658;78;21123;-62
2021/12/13 09:44:33;;;;;;;12.05;10.80;;;;;;;11.04;60.37;100146.34;1801087;77;21569;-62
2021/12/13 09:47:14;;;;;;;11.80;10.32;;;;;;;11.04;60.37;100152.16;1819195;77;20969;-62
2021/12/13 09:49:51;;;;;;;12.40;10.98;;;;;;;11.04;60.35;100151.66;1814708;78;21088;-62
2021/12/13 09:52:44;;;;;;;12.10;10.60;;;;;;;11.04;60.35;100133.05;1804682;78;21018;-62
2021/12/13 09:55:28;;;;;;;12.60;10.32;;;;;;;11.04;60.31;100121.58;1824549;78;21272;-62
2021/12/13 09:58:01;;;;;;;12.98;11.25;;;;;;;11.04;60.28;100101.14;1819248;78;21037;-63
2021/12/13 10:00:46;;;;;;;11.60;10.13;;;;;;;11.04;60.25;100107.78;1807015;78;21529;-63
2021/12/13 10:03:17;;;;;;;12.93;10.95;;;;;;;11.06;60.68;100124.91;1811148;78;21051;-64
2021/12/13 10:05:48;;;;;;;15.40;11.65;;;;;;;11.06;61.40;100125.73;1822167;77;21032;-63
2021/12/13 10:08:25;;;;;;;11.80;10.53;;;;;;;11.08;61.50;100143.69;1807796;77;21101;-63
2021/12/13 10:10:59;;;;;;;13.20;11.00;;;;;;;11.10;61.49;100147.52;1800000;78;21048;-63
2021/12/13 10:13:31;;;;;;;13.43;11.55;;;;;;;11.11;61.48;100150.02;1814064;78;21120;-62
2021/12/13 10:16:02;;;;;;;14.33;11.83;;;;;;;11.11;61.40;100137.23;1797504;78;20986;-62
2021/12/13 10:18:32;;;;;;;11.60;10.43;;;;;;;11.11;61.29;100136.73;1805242;78;21042;-63
2021/12/13 10:21:12;;;;;;;12.85;10.85;;;;;;;11.11;61.22;100134.07;1808864;78;21108;-62
2021/12/13 10:23:45;;;;;;;13.88;10.82;;;;;;;11.12;61.12;100137.55;1794269;78;21084;-63
2021/12/13 10:26:13;;;;;;;14.68;11.53;;;;;;;11.11;61.06;100131.91;1808566;78;21005;-64
2021/12/13 10:28:45;;;;;;;13.83;11.08;;;;;;;11.11;61.06;100131.91;1817697;78;21080;-63
2021/12/13 10:31:18;;;;;;;13.25;10.93;;;;;;;11.14;61.19;100134.23;1802109;78;21166;-64
2021/12/13 10:33:46;;;;;;;13.43;11.57;;;;;;;11.14;61.12;100139.55;1815040;77;21109;-66
2021/12/13 10:36:13;;;;;;;13.18;11.70;;;;;;;11.14;61.05;100135.05;1807042;78;21035;-64
2021/12/13 10:38:45;;;;;;;14.30;11.08;;;;;;;11.14;60.98;100136.89;1793234;78;20989;-63
2021/12/13 10:41:19;;;;;;;12.80;10.88;;;;;;;11.14;60.90;100140.38;1800545;78;21039;-63
2021/12/13 10:43:53;;;;;;;13.25;11.53;;;;;;;11.14;60.83;100136.39;1811084;78;21049;-64
2021/12/13 10:46:28;;;;;;;12.50;10.98;;;;;;;11.15;60.74;100139.91;1804503;78;21803;-64
2021/12/13 10:49:02;;;;;;;13.53;11.90;;;;;;;11.14;60.65;100132.40;1805595;78;21069;-64
2021/12/13 10:51:39;;;;;;;12.10;10.88;;;;;;;11.15;60.58;100136.73;1803981;77;21065;-63
2021/12/13 10:54:17;;;;;;;12.98;11.10;;;;;;;11.16;60.51;100139.75;1804971;78;21048;-64
2021/12/13 10:56:49;;;;;;;13.68;11.90;;;;;;;11.15;60.45;100134.58;1806295;78;21343;-64
2021/12/13 10:59:19;;;;;;;14.93;12.53;;;;;;;11.14;60.40;100135.05;1802843;78;21926;-64
2021/12/13 11:01:50;;;;;;;12.85;10.93;;;;;;;11.15;60.34;100127.94;1801387;78;21060;-63
2021/12/13 11:04:21;;;;;;;12.88;11.00;;;;;;;11.14;60.29;100127.08;1795165;78;21096;-64
2021/12/13 11:06:47;;;;;;;13.22;11.15;;;;;;;11.14;60.23;100129.73;1798628;78;21005;-64
2021/12/13 11:09:19;;;;;;;12.90;11.40;;;;;;;11.14;60.18;100123.09;1789410;78;21089;-63
2021/12/13 11:11:50;;;;;;;12.85;11.20;;;;;;;11.15;60.12;100119.95;1797137;78;21054;-63
2021/12/13 11:14:20;;;;;;;13.38;11.60;;;;;;;11.14;60.07;100112.96;1805075;79;21049;-64
2021/12/13 11:16:53;;;;;;;13.03;11.45;;;;;;;11.14;60.03;100121.77;1790213;79;21057;-64
2021/12/13 11:19:23;;;;;;;13.22;11.38;;;;;;;11.16;60.61;100116.28;1801061;79;20994;-63
2021/12/13 11:22:01;;;;;;;13.55;12.05;;;;;;;11.16;61.37;100113.62;1792113;79;21053;-62
2021/12/13 11:24:24;;;;;;;15.88;11.60;;;;;;;11.16;61.46;100106.50;1786692;78;21092;-63
2021/12/13 11:26:54;;;;;;;13.22;11.65;;;;;;;11.16;61.52;100103.84;1789428;79;21038;-63
2021/12/13 11:29:21;;;;;;;15.40;12.33;;;;;;;11.17;61.46;100101.50;1792435;79;21021;-64
2021/12/13 11:31:58;;;;;;;13.68;12.28;;;;;;;11.17;61.38;100105.49;1786494;78;20990;-64
2021/12/13 11:34:53;;;;;;;12.65;11.33;;;;;;;11.18;61.29;100101.00;1784293;78;21522;-62
2021/12/13 11:38:01;;;;;;;15.35;12.53;;;;;;;11.18;61.20;100095.20;1786041;79;21148;-65
2021/12/13 11:40:49;;;;;;;14.43;11.68;;;;;;;11.16;61.09;100099.86;1789092;79;21627;-63
2021/12/13 11:44:05;;;;;;;13.70;12.23;;;;;;;11.15;60.99;100096.84;1790820;78;20998;-64
2021/12/13 11:47:11;;;;;;;13.20;11.65;;;;;;;11.14;60.90;100096.50;1804115;78;21053;-64
2021/12/13 11:50:06;;;;;;;14.68;12.03;;;;;;;11.13;60.87;100087.38;1804035;79;21037;-63
2021/12/13 11:53:05;;;;;;;14.60;11.57;;;;;;;11.11;61.18;100095.52;1811002;79;21467;-64
2021/12/13 11:55:58;;;;;;;14.20;12.35;;;;;;;11.11;61.17;100110.14;1798362;78;21084;-63
2021/12/13 11:58:42;;;;;;;15.38;12.25;;;;;;;11.09;61.17;100112.13;1818259;78;21049;-65
2021/12/13 12:01:52;;;;;;;14.50;12.65;;;;;;;11.09;61.10;100117.95;1794687;78;21077;-63
2021/12/13 12:05:13;;;;;;;13.45;11.97;;;;;;;11.08;61.06;100118.42;1809403;79;21105;-64
2021/12/13 12:08:19;;;;;;;14.45;11.93;;;;;;;11.07;60.97;100119.91;1795705;79;21536;-63
2021/12/13 12:11:22;;;;;;;15.03;11.33;;;;;;;11.05;60.90;100114.78;1799878;78;21545;-65